sensor_id;sensor_type;location;lat;lon;timestamp;temperature;humidity
20672;DHT22;10495;50.922;4.760;2022-12-29T00:01:39;12.80;92.10
20672;DHT22;10495;50.922;4.760;2022-12-29T00:04:06;12.70;92.10
20672;DHT22;10495;50.922;4.760;2022-12-29T00:06:31;12.80;92.00
20672;DHT22;10495;50.922;4.760;2022-12-29T00:08:57;12.80;91.90
20672;DHT22;10495;50.922;4.760;2022-12-29T00:11:25;12.70;91.60
20672;DHT22;10495;50.922;4.760;2022-12-29T00:13:52;12.70;91.80
20672;DHT22;10495;50.922;4.760;2022-12-29T00:16:37;12.70;91.70
20672;DHT22;10495;50.922;4.760;2022-12-29T00:19:04;12.70;91.70
20672;DHT22;10495;50.922;4.760;2022-12-29T00:21:30;12.90;91.20
20672;DHT22;10495;50.922;4.760;2022-12-29T00:24:17;12.90;90.90
20672;DHT22;10495;50.922;4.760;2022-12-29T00:29:48;12.60;91.20
20672;DHT22;10495;50.922;4.760;2022-12-29T00:32:33;12.80;90.90
20672;DHT22;10495;50.922;4.760;2022-12-29T00:37:52;12.90;90.50
20672;DHT22;10495;50.922;4.760;2022-12-29T00:40:37;13.00;90.20
20672;DHT22;10495;50.922;4.760;2022-12-29T00:43:21;12.80;90.10
20672;DHT22;10495;50.922;4.760;2022-12-29T00:46:05;12.80;90.30
20672;DHT22;10495;50.922;4.760;2022-12-29T00:48:31;12.80;90.20
20672;DHT22;10495;50.922;4.760;2022-12-29T00:51:15;12.80;90.30
20672;DHT22;10495;50.922;4.760;2022-12-29T00:53:40;12.60;90.40
20672;DHT22;10495;50.922;4.760;2022-12-29T00:56:06;12.70;90.30
20672;DHT22;10495;50.922;4.760;2022-12-29T00:58:32;12.80;90.20
20672;DHT22;10495;50.922;4.760;2022-12-29T01:01:05;13.00;90.00
20672;DHT22;10495;50.922;4.760;2022-12-29T01:03:32;13.00;89.80
20672;DHT22;10495;50.922;4.760;2022-12-29T01:06:03;13.10;89.20
20672;DHT22;10495;50.922;4.760;2022-12-29T01:08:29;13.10;89.30
20672;DHT22;10495;50.922;4.760;2022-12-29T01:11:12;13.00;88.70
20672;DHT22;10495;50.922;4.760;2022-12-29T01:13:38;13.00;89.30
20672;DHT22;10495;50.922;4.760;2022-12-29T01:16:05;13.00;89.80
20672;DHT22;10495;50.922;4.760;2022-12-29T01:18:31;13.20;89.10
20672;DHT22;10495;50.922;4.760;2022-12-29T01:21:01;13.20;88.80
20672;DHT22;10495;50.922;4.760;2022-12-29T01:23:27;13.30;88.70
20672;DHT22;10495;50.922;4.760;2022-12-29T01:25:53;13.00;88.80
20672;DHT22;10495;50.922;4.760;2022-12-29T01:28:19;13.00;90.00
20672;DHT22;10495;50.922;4.760;2022-12-29T01:30:44;13.10;89.20
20672;DHT22;10495;50.922;4.760;2022-12-29T01:33:10;12.90;89.80
20672;DHT22;10495;50.922;4.760;2022-12-29T01:35:35;12.80;90.40
20672;DHT22;10495;50.922;4.760;2022-12-29T01:38:01;12.80;90.40
20672;DHT22;10495;50.922;4.760;2022-12-29T01:40:27;13.00;90.40
20672;DHT22;10495;50.922;4.760;2022-12-29T01:42:53;12.80;90.70
20672;DHT22;10495;50.922;4.760;2022-12-29T01:45:19;12.70;91.20
20672;DHT22;10495;50.922;4.760;2022-12-29T01:50:26;12.50;91.40
20672;DHT22;10495;50.922;4.760;2022-12-29T01:53:09;12.50;91.60
20672;DHT22;10495;50.922;4.760;2022-12-29T01:55:44;12.40;91.70
20672;DHT22;10495;50.922;4.760;2022-12-29T01:58:13;12.40;92.10
20672;DHT22;10495;50.922;4.760;2022-12-29T02:00:40;12.30;92.20
20672;DHT22;10495;50.922;4.760;2022-12-29T02:03:06;12.20;92.70
20672;DHT22;10495;50.922;4.760;2022-12-29T02:05:35;12.20;92.40
20672;DHT22;10495;50.922;4.760;2022-12-29T02:08:02;12.10;92.90
20672;DHT22;10495;50.922;4.760;2022-12-29T02:10:31;12.10;92.90
20672;DHT22;10495;50.922;4.760;2022-12-29T02:12:58;12.20;92.90
20672;DHT22;10495;50.922;4.760;2022-12-29T02:18:06;12.30;92.10
20672;DHT22;10495;50.922;4.760;2022-12-29T02:23:55;12.40;91.90
20672;DHT22;10495;50.922;4.760;2022-12-29T02:29:49;12.40;91.80
20672;DHT22;10495;50.922;4.760;2022-12-29T02:40:39;12.20;92.10
20672;DHT22;10495;50.922;4.760;2022-12-29T02:43:24;11.90;92.60
20672;DHT22;10495;50.922;4.760;2022-12-29T02:45:58;12.00;93.00
20672;DHT22;10495;50.922;4.760;2022-12-29T02:48:42;12.00;92.90
20672;DHT22;10495;50.922;4.760;2022-12-29T02:51:15;12.00;92.60
20672;DHT22;10495;50.922;4.760;2022-12-29T02:53:44;12.10;92.50
20672;DHT22;10495;50.922;4.760;2022-12-29T02:56:29;12.10;92.70
20672;DHT22;10495;50.922;4.760;2022-12-29T02:58:55;12.00;92.80
20672;DHT22;10495;50.922;4.760;2022-12-29T03:02:13;12.10;92.70
20672;DHT22;10495;50.922;4.760;2022-12-29T03:04:38;12.10;92.70
20672;DHT22;10495;50.922;4.760;2022-12-29T03:12:33;12.10;92.20
20672;DHT22;10495;50.922;4.760;2022-12-29T03:15:26;11.90;92.00
20672;DHT22;10495;50.922;4.760;2022-12-29T03:18:22;12.00;91.90
20672;DHT22;10495;50.922;4.760;2022-12-29T03:20:53;11.80;92.00
20672;DHT22;10495;50.922;4.760;2022-12-29T03:23:20;11.50;92.30
20672;DHT22;10495;50.922;4.760;2022-12-29T03:25:49;11.40;92.60
20672;DHT22;10495;50.922;4.760;2022-12-29T03:28:20;11.40;92.90
20672;DHT22;10495;50.922;4.760;2022-12-29T03:30:47;11.50;92.70
20672;DHT22;10495;50.922;4.760;2022-12-29T03:33:17;11.60;92.60
20672;DHT22;10495;50.922;4.760;2022-12-29T03:35:45;11.60;92.70
20672;DHT22;10495;50.922;4.760;2022-12-29T03:38:33;11.60;92.60
20672;DHT22;10495;50.922;4.760;2022-12-29T03:41:04;11.50;92.40
20672;DHT22;10495;50.922;4.760;2022-12-29T03:43:32;11.40;92.80
20672;DHT22;10495;50.922;4.760;2022-12-29T03:45:58;11.30;93.10
20672;DHT22;10495;50.922;4.760;2022-12-29T03:48:23;11.20;93.40
20672;DHT22;10495;50.922;4.760;2022-12-29T03:50:49;11.10;93.40
20672;DHT22;10495;50.922;4.760;2022-12-29T03:53:14;11.00;93.40
20672;DHT22;10495;50.922;4.760;2022-12-29T03:55:40;11.20;93.10
20672;DHT22;10495;50.922;4.760;2022-12-29T03:58:06;11.10;93.40
20672;DHT22;10495;50.922;4.760;2022-12-29T04:00:31;11.20;93.20
20672;DHT22;10495;50.922;4.760;2022-12-29T04:02:57;11.40;93.10
20672;DHT22;10495;50.922;4.760;2022-12-29T04:05:22;11.40;93.20
20672;DHT22;10495;50.922;4.760;2022-12-29T04:07:48;11.40;92.80
20672;DHT22;10495;50.922;4.760;2022-12-29T04:10:14;11.40;92.70
20672;DHT22;10495;50.922;4.760;2022-12-29T04:12:39;11.50;92.60
20672;DHT22;10495;50.922;4.760;2022-12-29T04:15:07;11.60;92.40
20672;DHT22;10495;50.922;4.760;2022-12-29T04:17:33;11.70;92.00
20672;DHT22;10495;50.922;4.760;2022-12-29T04:19:58;11.60;91.80
20672;DHT22;10495;50.922;4.760;2022-12-29T04:22:44;11.50;91.50
20672;DHT22;10495;50.922;4.760;2022-12-29T04:25:10;11.50;91.50
20672;DHT22;10495;50.922;4.760;2022-12-29T04:27:35;11.40;91.40
20672;DHT22;10495;50.922;4.760;2022-12-29T04:30:01;11.40;91.30
20672;DHT22;10495;50.922;4.760;2022-12-29T04:32:27;11.60;91.00
20672;DHT22;10495;50.922;4.760;2022-12-29T04:34:52;11.40;91.20
20672;DHT22;10495;50.922;4.760;2022-12-29T04:37:18;11.40;91.20
20672;DHT22;10495;50.922;4.760;2022-12-29T04:39:43;11.10;91.20
20672;DHT22;10495;50.922;4.760;2022-12-29T04:42:09;11.30;91.30
20672;DHT22;10495;50.922;4.760;2022-12-29T04:44:34;11.50;90.90
20672;DHT22;10495;50.922;4.760;2022-12-29T04:47:00;11.20;91.10
20672;DHT22;10495;50.922;4.760;2022-12-29T04:49:25;11.40;91.30
20672;DHT22;10495;50.922;4.760;2022-12-29T04:51:51;11.00;91.60
20672;DHT22;10495;50.922;4.760;2022-12-29T04:54:16;11.10;91.70
20672;DHT22;10495;50.922;4.760;2022-12-29T04:56:42;11.30;91.70
20672;DHT22;10495;50.922;4.760;2022-12-29T04:59:07;11.50;91.60
20672;DHT22;10495;50.922;4.760;2022-12-29T05:01:33;11.60;91.40
20672;DHT22;10495;50.922;4.760;2022-12-29T05:03:59;11.50;91.40
20672;DHT22;10495;50.922;4.760;2022-12-29T05:06:24;11.50;91.20
20672;DHT22;10495;50.922;4.760;2022-12-29T05:08:50;11.70;91.30
20672;DHT22;10495;50.922;4.760;2022-12-29T05:11:15;11.60;91.30
20672;DHT22;10495;50.922;4.760;2022-12-29T05:13:41;11.60;91.40
20672;DHT22;10495;50.922;4.760;2022-12-29T05:16:09;11.80;91.10
20672;DHT22;10495;50.922;4.760;2022-12-29T05:18:35;11.70;90.90
20672;DHT22;10495;50.922;4.760;2022-12-29T05:21:01;11.70;91.00
20672;DHT22;10495;50.922;4.760;2022-12-29T05:23:26;11.70;91.10
20672;DHT22;10495;50.922;4.760;2022-12-29T05:25:52;11.90;90.50
20672;DHT22;10495;50.922;4.760;2022-12-29T05:28:17;11.90;90.20
20672;DHT22;10495;50.922;4.760;2022-12-29T05:30:43;11.70;90.40
20672;DHT22;10495;50.922;4.760;2022-12-29T05:33:08;11.80;90.40
20672;DHT22;10495;50.922;4.760;2022-12-29T05:35:36;11.80;90.20
20672;DHT22;10495;50.922;4.760;2022-12-29T05:38:02;11.60;90.30
20672;DHT22;10495;50.922;4.760;2022-12-29T05:40:27;11.70;90.20
20672;DHT22;10495;50.922;4.760;2022-12-29T05:42:53;11.80;90.00
20672;DHT22;10495;50.922;4.760;2022-12-29T05:45:19;11.90;89.60
20672;DHT22;10495;50.922;4.760;2022-12-29T05:47:44;11.80;89.40
20672;DHT22;10495;50.922;4.760;2022-12-29T05:50:10;11.70;89.50
20672;DHT22;10495;50.922;4.760;2022-12-29T05:52:36;11.70;89.10
20672;DHT22;10495;50.922;4.760;2022-12-29T05:55:01;11.90;89.20
20672;DHT22;10495;50.922;4.760;2022-12-29T05:57:27;11.90;89.50
20672;DHT22;10495;50.922;4.760;2022-12-29T05:59:52;11.90;88.50
20672;DHT22;10495;50.922;4.760;2022-12-29T06:02:18;12.00;87.90
20672;DHT22;10495;50.922;4.760;2022-12-29T06:04:43;12.00;87.90
20672;DHT22;10495;50.922;4.760;2022-12-29T06:07:09;11.80;87.80
20672;DHT22;10495;50.922;4.760;2022-12-29T06:09:35;11.80;88.10
20672;DHT22;10495;50.922;4.760;2022-12-29T06:12:00;11.80;87.20
20672;DHT22;10495;50.922;4.760;2022-12-29T06:14:26;11.90;87.40
20672;DHT22;10495;50.922;4.760;2022-12-29T06:16:51;11.90;86.90
20672;DHT22;10495;50.922;4.760;2022-12-29T06:19:17;12.00;86.30
20672;DHT22;10495;50.922;4.760;2022-12-29T06:21:43;11.70;86.90
20672;DHT22;10495;50.922;4.760;2022-12-29T06:24:08;11.60;87.80
20672;DHT22;10495;50.922;4.760;2022-12-29T06:26:36;11.50;87.90
20672;DHT22;10495;50.922;4.760;2022-12-29T06:29:02;11.70;87.70
20672;DHT22;10495;50.922;4.760;2022-12-29T06:31:28;11.70;87.40
20672;DHT22;10495;50.922;4.760;2022-12-29T06:33:53;11.60;86.80
20672;DHT22;10495;50.922;4.760;2022-12-29T06:36:19;11.60;86.90
20672;DHT22;10495;50.922;4.760;2022-12-29T06:38:44;11.80;86.40
20672;DHT22;10495;50.922;4.760;2022-12-29T06:41:10;11.70;85.40
20672;DHT22;10495;50.922;4.760;2022-12-29T06:43:36;11.70;84.90
20672;DHT22;10495;50.922;4.760;2022-12-29T06:46:04;11.70;84.80
20672;DHT22;10495;50.922;4.760;2022-12-29T06:48:30;11.60;84.60
20672;DHT22;10495;50.922;4.760;2022-12-29T06:50:55;11.70;84.40
20672;DHT22;10495;50.922;4.760;2022-12-29T06:53:21;11.70;84.10
20672;DHT22;10495;50.922;4.760;2022-12-29T06:55:46;11.50;85.40
20672;DHT22;10495;50.922;4.760;2022-12-29T06:58:12;11.50;85.30
20672;DHT22;10495;50.922;4.760;2022-12-29T07:00:38;11.60;85.10
20672;DHT22;10495;50.922;4.760;2022-12-29T07:03:03;11.70;85.10
20672;DHT22;10495;50.922;4.760;2022-12-29T07:05:29;11.70;85.00
20672;DHT22;10495;50.922;4.760;2022-12-29T07:07:56;11.90;84.80
20672;DHT22;10495;50.922;4.760;2022-12-29T07:10:22;11.80;83.20
20672;DHT22;10495;50.922;4.760;2022-12-29T07:12:48;11.80;83.00
20672;DHT22;10495;50.922;4.760;2022-12-29T07:15:14;11.90;83.00
20672;DHT22;10495;50.922;4.760;2022-12-29T07:17:39;11.90;83.10
20672;DHT22;10495;50.922;4.760;2022-12-29T07:20:06;11.90;82.80
20672;DHT22;10495;50.922;4.760;2022-12-29T07:22:32;12.00;82.80
20672;DHT22;10495;50.922;4.760;2022-12-29T07:24:57;11.90;83.20
20672;DHT22;10495;50.922;4.760;2022-12-29T07:27:23;11.90;83.30
20672;DHT22;10495;50.922;4.760;2022-12-29T07:29:48;11.90;83.30
20672;DHT22;10495;50.922;4.760;2022-12-29T07:32:14;11.90;83.40
20672;DHT22;10495;50.922;4.760;2022-12-29T07:34:40;11.80;83.20
20672;DHT22;10495;50.922;4.760;2022-12-29T07:37:06;11.80;83.00
20672;DHT22;10495;50.922;4.760;2022-12-29T07:39:31;11.80;83.50
20672;DHT22;10495;50.922;4.760;2022-12-29T07:41:57;11.70;82.90
20672;DHT22;10495;50.922;4.760;2022-12-29T07:44:22;11.70;83.50
20672;DHT22;10495;50.922;4.760;2022-12-29T07:46:48;11.80;83.10
20672;DHT22;10495;50.922;4.760;2022-12-29T07:49:13;11.80;82.90
20672;DHT22;10495;50.922;4.760;2022-12-29T07:51:39;11.90;82.50
20672;DHT22;10495;50.922;4.760;2022-12-29T07:54:04;12.00;82.30
20672;DHT22;10495;50.922;4.760;2022-12-29T07:56:30;11.80;82.80
20672;DHT22;10495;50.922;4.760;2022-12-29T07:58:56;11.80;82.20
20672;DHT22;10495;50.922;4.760;2022-12-29T08:01:21;11.70;82.80
20672;DHT22;10495;50.922;4.760;2022-12-29T08:03:48;11.80;82.90
20672;DHT22;10495;50.922;4.760;2022-12-29T08:06:14;11.80;83.20
20672;DHT22;10495;50.922;4.760;2022-12-29T08:08:40;11.70;83.30
20672;DHT22;10495;50.922;4.760;2022-12-29T08:11:06;11.80;83.00
20672;DHT22;10495;50.922;4.760;2022-12-29T08:13:31;11.70;82.90
20672;DHT22;10495;50.922;4.760;2022-12-29T08:16:00;11.90;82.50
20672;DHT22;10495;50.922;4.760;2022-12-29T08:18:25;12.00;82.20
20672;DHT22;10495;50.922;4.760;2022-12-29T08:20:51;12.00;82.10
20672;DHT22;10495;50.922;4.760;2022-12-29T08:23:16;12.00;82.00
20672;DHT22;10495;50.922;4.760;2022-12-29T08:25:42;12.00;82.60
20672;DHT22;10495;50.922;4.760;2022-12-29T08:28:07;12.10;81.40
20672;DHT22;10495;50.922;4.760;2022-12-29T08:30:33;11.90;82.00
20672;DHT22;10495;50.922;4.760;2022-12-29T08:32:59;12.00;81.60
20672;DHT22;10495;50.922;4.760;2022-12-29T08:35:24;11.90;81.30
20672;DHT22;10495;50.922;4.760;2022-12-29T08:37:50;11.90;81.50
20672;DHT22;10495;50.922;4.760;2022-12-29T08:40:15;12.00;81.30
20672;DHT22;10495;50.922;4.760;2022-12-29T08:42:41;12.10;80.70
20672;DHT22;10495;50.922;4.760;2022-12-29T08:45:07;12.00;81.10
20672;DHT22;10495;50.922;4.760;2022-12-29T08:47:34;12.10;80.80
20672;DHT22;10495;50.922;4.760;2022-12-29T08:49:59;12.00;80.70
20672;DHT22;10495;50.922;4.760;2022-12-29T08:52:25;11.90;81.50
20672;DHT22;10495;50.922;4.760;2022-12-29T08:54:51;11.90;81.40
20672;DHT22;10495;50.922;4.760;2022-12-29T08:57:17;11.90;81.30
20672;DHT22;10495;50.922;4.760;2022-12-29T08:59:42;12.00;81.20
20672;DHT22;10495;50.922;4.760;2022-12-29T09:02:12;11.90;81.20
20672;DHT22;10495;50.922;4.760;2022-12-29T09:04:37;12.00;81.20
20672;DHT22;10495;50.922;4.760;2022-12-29T09:07:03;12.00;81.20
20672;DHT22;10495;50.922;4.760;2022-12-29T09:09:29;12.10;80.90
20672;DHT22;10495;50.922;4.760;2022-12-29T09:11:54;12.10;80.20
20672;DHT22;10495;50.922;4.760;2022-12-29T09:14:20;12.10;81.20
20672;DHT22;10495;50.922;4.760;2022-12-29T09:16:46;12.20;81.60
20672;DHT22;10495;50.922;4.760;2022-12-29T09:19:31;12.10;80.70
20672;DHT22;10495;50.922;4.760;2022-12-29T09:21:56;12.10;80.80
20672;DHT22;10495;50.922;4.760;2022-12-29T09:24:22;12.20;80.90
20672;DHT22;10495;50.922;4.760;2022-12-29T09:26:47;12.50;79.60
20672;DHT22;10495;50.922;4.760;2022-12-29T09:29:13;12.20;80.10
20672;DHT22;10495;50.922;4.760;2022-12-29T09:31:39;12.30;80.10
20672;DHT22;10495;50.922;4.760;2022-12-29T09:34:04;12.20;80.20
20672;DHT22;10495;50.922;4.760;2022-12-29T09:36:30;12.20;80.30
20672;DHT22;10495;50.922;4.760;2022-12-29T09:38:55;12.20;79.90
20672;DHT22;10495;50.922;4.760;2022-12-29T09:41:36;12.10;79.70
20672;DHT22;10495;50.922;4.760;2022-12-29T09:46:51;12.10;80.40
20672;DHT22;10495;50.922;4.760;2022-12-29T09:49:37;12.30;80.30
20672;DHT22;10495;50.922;4.760;2022-12-29T09:52:14;12.20;80.50
20672;DHT22;10495;50.922;4.760;2022-12-29T09:57:29;12.50;79.70
20672;DHT22;10495;50.922;4.760;2022-12-29T10:02:58;12.60;79.60
20672;DHT22;10495;50.922;4.760;2022-12-29T10:05:38;12.70;79.50
20672;DHT22;10495;50.922;4.760;2022-12-29T10:08:26;12.70;79.40
20672;DHT22;10495;50.922;4.760;2022-12-29T10:11:22;12.70;78.80
20672;DHT22;10495;50.922;4.760;2022-12-29T10:16:49;12.90;78.20
20672;DHT22;10495;50.922;4.760;2022-12-29T10:19:23;12.90;77.80
20672;DHT22;10495;50.922;4.760;2022-12-29T10:22:31;12.90;76.50
20672;DHT22;10495;50.922;4.760;2022-12-29T10:24:59;12.70;77.60
20672;DHT22;10495;50.922;4.760;2022-12-29T10:27:31;12.70;77.30
20672;DHT22;10495;50.922;4.760;2022-12-29T10:29:59;12.80;76.80
20672;DHT22;10495;50.922;4.760;2022-12-29T10:32:34;12.70;76.90
20672;DHT22;10495;50.922;4.760;2022-12-29T10:35:16;12.40;78.40
20672;DHT22;10495;50.922;4.760;2022-12-29T10:37:55;12.70;77.40
20672;DHT22;10495;50.922;4.760;2022-12-29T10:40:36;12.60;77.40
20672;DHT22;10495;50.922;4.760;2022-12-29T10:43:25;13.00;76.20
20672;DHT22;10495;50.922;4.760;2022-12-29T10:46:01;12.90;76.80
20672;DHT22;10495;50.922;4.760;2022-12-29T10:48:32;12.80;76.70
20672;DHT22;10495;50.922;4.760;2022-12-29T10:51:00;12.90;76.50
20672;DHT22;10495;50.922;4.760;2022-12-29T10:53:43;12.90;76.00
20672;DHT22;10495;50.922;4.760;2022-12-29T10:58:59;12.80;77.80
20672;DHT22;10495;50.922;4.760;2022-12-29T11:01:32;12.80;76.50
20672;DHT22;10495;50.922;4.760;2022-12-29T11:04:11;13.00;76.10
20672;DHT22;10495;50.922;4.760;2022-12-29T11:06:43;12.80;76.70
20672;DHT22;10495;50.922;4.760;2022-12-29T11:09:12;12.80;76.90
20672;DHT22;10495;50.922;4.760;2022-12-29T11:11:39;12.80;77.50
20672;DHT22;10495;50.922;4.760;2022-12-29T11:14:46;13.10;76.30
20672;DHT22;10495;50.922;4.760;2022-12-29T11:17:06;13.00;76.50
20672;DHT22;10495;50.922;4.760;2022-12-29T11:19:33;13.10;76.20
20672;DHT22;10495;50.922;4.760;2022-12-29T11:22:21;13.10;75.90
20672;DHT22;10495;50.922;4.760;2022-12-29T11:24:48;13.00;76.30
20672;DHT22;10495;50.922;4.760;2022-12-29T11:27:25;12.80;76.80
20672;DHT22;10495;50.922;4.760;2022-12-29T11:29:52;13.00;76.60
20672;DHT22;10495;50.922;4.760;2022-12-29T11:32:26;13.10;76.40
20672;DHT22;10495;50.922;4.760;2022-12-29T11:34:53;13.00;76.00
20672;DHT22;10495;50.922;4.760;2022-12-29T11:37:30;13.00;77.00
20672;DHT22;10495;50.922;4.760;2022-12-29T11:40:03;13.20;76.00
20672;DHT22;10495;50.922;4.760;2022-12-29T11:42:40;13.20;76.00
20672;DHT22;10495;50.922;4.760;2022-12-29T11:45:22;13.00;77.00
20672;DHT22;10495;50.922;4.760;2022-12-29T11:47:51;13.00;77.10
20672;DHT22;10495;50.922;4.760;2022-12-29T11:50:23;13.00;76.90
20672;DHT22;10495;50.922;4.760;2022-12-29T11:52:57;12.90;77.00
20672;DHT22;10495;50.922;4.760;2022-12-29T11:55:26;13.00;76.30
20672;DHT22;10495;50.922;4.760;2022-12-29T11:57:53;12.80;77.90
20672;DHT22;10495;50.922;4.760;2022-12-29T12:00:24;12.70;78.00
20672;DHT22;10495;50.922;4.760;2022-12-29T12:03:01;12.80;78.70
20672;DHT22;10495;50.922;4.760;2022-12-29T12:10:58;13.20;77.20
20672;DHT22;10495;50.922;4.760;2022-12-29T12:16:13;13.20;77.80
20672;DHT22;10495;50.922;4.760;2022-12-29T12:18:52;13.00;77.60
20672;DHT22;10495;50.922;4.760;2022-12-29T12:29:46;12.60;78.50
20672;DHT22;10495;50.922;4.760;2022-12-29T12:32:35;12.60;78.40
20672;DHT22;10495;50.922;4.760;2022-12-29T12:35:16;12.70;78.60
20672;DHT22;10495;50.922;4.760;2022-12-29T12:38:14;12.70;79.00
20672;DHT22;10495;50.922;4.760;2022-12-29T12:40:51;12.50;78.60
20672;DHT22;10495;50.922;4.760;2022-12-29T12:53:47;12.50;80.00
20672;DHT22;10495;50.922;4.760;2022-12-29T12:56:26;12.60;79.50
20672;DHT22;10495;50.922;4.760;2022-12-29T12:59:01;12.80;79.00
20672;DHT22;10495;50.922;4.760;2022-12-29T13:19:08;12.70;78.30
20672;DHT22;10495;50.922;4.760;2022-12-29T13:27:22;12.70;77.70
20672;DHT22;10495;50.922;4.760;2022-12-29T13:30:02;12.90;77.20
20672;DHT22;10495;50.922;4.760;2022-12-29T13:35:37;12.40;78.20
20672;DHT22;10495;50.922;4.760;2022-12-29T13:38:38;12.50;77.60
20672;DHT22;10495;50.922;4.760;2022-12-29T13:41:08;12.50;76.90
20672;DHT22;10495;50.922;4.760;2022-12-29T13:43:38;12.60;77.20
20672;DHT22;10495;50.922;4.760;2022-12-29T13:46:13;12.80;76.80
20672;DHT22;10495;50.922;4.760;2022-12-29T13:48:52;12.70;77.30
20672;DHT22;10495;50.922;4.760;2022-12-29T13:51:19;12.70;77.60
20672;DHT22;10495;50.922;4.760;2022-12-29T13:56:38;12.60;78.40
20672;DHT22;10495;50.922;4.760;2022-12-29T13:59:26;12.40;78.60
20672;DHT22;10495;50.922;4.760;2022-12-29T14:02:20;12.40;78.40
20672;DHT22;10495;50.922;4.760;2022-12-29T14:07:58;12.30;79.00
20672;DHT22;10495;50.922;4.760;2022-12-29T14:10:36;12.30;79.50
20672;DHT22;10495;50.922;4.760;2022-12-29T14:13:09;12.10;79.90
20672;DHT22;10495;50.922;4.760;2022-12-29T14:15:38;12.30;79.60
20672;DHT22;10495;50.922;4.760;2022-12-29T14:18:21;12.10;79.70
20672;DHT22;10495;50.922;4.760;2022-12-29T14:21:01;12.10;80.20
20672;DHT22;10495;50.922;4.760;2022-12-29T14:28:32;11.60;81.60
20672;DHT22;10495;50.922;4.760;2022-12-29T14:31:00;11.40;81.80
20672;DHT22;10495;50.922;4.760;2022-12-29T14:33:29;11.40;82.30
20672;DHT22;10495;50.922;4.760;2022-12-29T14:35:55;11.30;82.50
20672;DHT22;10495;50.922;4.760;2022-12-29T14:38:27;11.60;82.10
20672;DHT22;10495;50.922;4.760;2022-12-29T14:41:32;11.80;81.50
20672;DHT22;10495;50.922;4.760;2022-12-29T14:44:19;11.70;81.40
20672;DHT22;10495;50.922;4.760;2022-12-29T14:49:20;12.00;81.00
20672;DHT22;10495;50.922;4.760;2022-12-29T14:51:50;12.10;80.60
20672;DHT22;10495;50.922;4.760;2022-12-29T14:57:06;11.70;80.90
20672;DHT22;10495;50.922;4.760;2022-12-29T14:59:34;11.70;80.80
20672;DHT22;10495;50.922;4.760;2022-12-29T15:02:05;11.70;80.60
20672;DHT22;10495;50.922;4.760;2022-12-29T15:04:38;11.70;80.50
20672;DHT22;10495;50.922;4.760;2022-12-29T15:07:09;11.80;80.50
20672;DHT22;10495;50.922;4.760;2022-12-29T15:09:37;11.90;79.80
20672;DHT22;10495;50.922;4.760;2022-12-29T15:14:53;11.80;78.80
20672;DHT22;10495;50.922;4.760;2022-12-29T15:17:39;11.80;80.00
20672;DHT22;10495;50.922;4.760;2022-12-29T15:20:26;11.80;80.10
20672;DHT22;10495;50.922;4.760;2022-12-29T15:22:58;11.60;82.10
20672;DHT22;10495;50.922;4.760;2022-12-29T15:25:25;11.40;82.90
20672;DHT22;10495;50.922;4.760;2022-12-29T15:28:01;11.30;83.30
20672;DHT22;10495;50.922;4.760;2022-12-29T15:30:27;11.20;85.50
20672;DHT22;10495;50.922;4.760;2022-12-29T15:32:53;11.10;85.80
20672;DHT22;10495;50.922;4.760;2022-12-29T15:37:53;10.80;87.20
20672;DHT22;10495;50.922;4.760;2022-12-29T15:40:25;10.80;87.40
20672;DHT22;10495;50.922;4.760;2022-12-29T15:45:34;10.80;87.30
20672;DHT22;10495;50.922;4.760;2022-12-29T15:48:01;10.50;88.10
20672;DHT22;10495;50.922;4.760;2022-12-29T15:50:29;10.70;87.40
20672;DHT22;10495;50.922;4.760;2022-12-29T15:52:56;10.50;86.40
20672;DHT22;10495;50.922;4.760;2022-12-29T15:55:35;10.50;86.60
20672;DHT22;10495;50.922;4.760;2022-12-29T15:58:03;10.40;86.50
20672;DHT22;10495;50.922;4.760;2022-12-29T16:00:32;10.20;86.90
20672;DHT22;10495;50.922;4.760;2022-12-29T16:03:01;10.20;87.10
20672;DHT22;10495;50.922;4.760;2022-12-29T16:05:38;10.10;87.30
20672;DHT22;10495;50.922;4.760;2022-12-29T16:08:31;10.20;87.70
20672;DHT22;10495;50.922;4.760;2022-12-29T16:10:59;10.40;87.00
20672;DHT22;10495;50.922;4.760;2022-12-29T16:13:31;10.40;86.80
20672;DHT22;10495;50.922;4.760;2022-12-29T16:16:21;10.00;88.30
20672;DHT22;10495;50.922;4.760;2022-12-29T16:18:47;9.90;89.10
20672;DHT22;10495;50.922;4.760;2022-12-29T16:21:34;10.10;88.80
20672;DHT22;10495;50.922;4.760;2022-12-29T16:24:05;10.20;88.30
20672;DHT22;10495;50.922;4.760;2022-12-29T16:26:32;10.30;88.20
20672;DHT22;10495;50.922;4.760;2022-12-29T16:28:59;10.30;88.00
20672;DHT22;10495;50.922;4.760;2022-12-29T16:31:55;10.20;88.30
20672;DHT22;10495;50.922;4.760;2022-12-29T16:37:28;10.20;88.00
20672;DHT22;10495;50.922;4.760;2022-12-29T16:39:54;10.30;87.70
20672;DHT22;10495;50.922;4.760;2022-12-29T16:48:11;9.90;88.00
20672;DHT22;10495;50.922;4.760;2022-12-29T16:50:43;9.80;88.20
20672;DHT22;10495;50.922;4.760;2022-12-29T16:53:26;9.90;87.80
20672;DHT22;10495;50.922;4.760;2022-12-29T16:55:53;9.90;87.60
20672;DHT22;10495;50.922;4.760;2022-12-29T16:58:22;9.60;88.30
20672;DHT22;10495;50.922;4.760;2022-12-29T17:00:48;9.60;88.50
20672;DHT22;10495;50.922;4.760;2022-12-29T17:03:15;9.80;87.80
20672;DHT22;10495;50.922;4.760;2022-12-29T17:05:41;9.60;88.00
20672;DHT22;10495;50.922;4.760;2022-12-29T17:08:42;9.70;87.50
20672;DHT22;10495;50.922;4.760;2022-12-29T17:14:02;9.80;86.80
20672;DHT22;10495;50.922;4.760;2022-12-29T17:16:27;9.70;87.00
20672;DHT22;10495;50.922;4.760;2022-12-29T17:18:53;9.60;86.70
20672;DHT22;10495;50.922;4.760;2022-12-29T17:21:19;9.60;86.30
20672;DHT22;10495;50.922;4.760;2022-12-29T17:23:44;9.70;86.90
20672;DHT22;10495;50.922;4.760;2022-12-29T17:26:11;9.60;86.20
20672;DHT22;10495;50.922;4.760;2022-12-29T17:28:37;9.70;86.00
20672;DHT22;10495;50.922;4.760;2022-12-29T17:31:05;9.70;86.10
20672;DHT22;10495;50.922;4.760;2022-12-29T17:33:36;9.60;85.50
20672;DHT22;10495;50.922;4.760;2022-12-29T17:36:02;9.60;86.00
20672;DHT22;10495;50.922;4.760;2022-12-29T17:38:30;9.40;86.20
20672;DHT22;10495;50.922;4.760;2022-12-29T17:40:57;9.60;85.90
20672;DHT22;10495;50.922;4.760;2022-12-29T17:43:23;9.70;85.30
20672;DHT22;10495;50.922;4.760;2022-12-29T17:45:56;9.90;84.80
20672;DHT22;10495;50.922;4.760;2022-12-29T17:48:23;9.70;84.80
20672;DHT22;10495;50.922;4.760;2022-12-29T17:50:50;9.80;84.50
20672;DHT22;10495;50.922;4.760;2022-12-29T17:53:23;9.80;84.20
20672;DHT22;10495;50.922;4.760;2022-12-29T17:55:49;9.90;83.90
20672;DHT22;10495;50.922;4.760;2022-12-29T17:58:24;9.70;84.20
20672;DHT22;10495;50.922;4.760;2022-12-29T18:00:52;9.70;83.90
20672;DHT22;10495;50.922;4.760;2022-12-29T18:03:22;9.60;84.30
20672;DHT22;10495;50.922;4.760;2022-12-29T18:05:48;9.70;84.30
20672;DHT22;10495;50.922;4.760;2022-12-29T18:08:14;9.70;83.50